(°C)
13°
13°
13°
14°
15°
16°
16°
(°C)
10°
11°
11°
13°
NO
NO
NO
NO
NO
NO
NO
(km/h)
16-28
17-29
17-29
17-29
17-29
17-28
16-27
(mm)
0.3
0.4
0.4
0.3
0.1
0
0
(%)
35
35
35
47
25
0
0

Sonnenhöhe

/ 7.4°
sun-icon
UV 7
05:12
20:03
Abnehmender Halbmond (291°)
02:38
14:14

METAR für Barnstable (KHYA)

Zeit Bedingungen Temperatur/
Taupunkt
Wind Sichtweite Wetter Wolken Druck Änderung Roh
VFR 13.3°C / 7.2°C 30º 10kt Gust 17kt >10km - Few Clouds 9000ft
Scattered Clouds 11000ft
1024 - KHYA 240856Z AUTO 03010G17KT 10SM FEW090 SCT110 13/07 A3025 RMK AO2 SLP246 T01330072 53006
VFR 13.9°C / 7.8°C 10º 12kt Gust 16kt >10km - Few Clouds 9500ft 1024 - KHYA 240756Z AUTO 01012G16KT 10SM FEW095 14/08 A3025 RMK AO2 SLP243 T01390078
VFR 13.3°C / 8.9°C 350º 4kt >10km - Few Clouds 8000ft 1023 - KHYA 240656Z AUTO 35004KT 10SM FEW080 13/09 A3023 RMK AO2 SLP239 T01330089
VFR 13.9°C / 9.4°C 340º 4kt >10km - Clear 1024 - KHYA 240556Z AUTO 34004KT 10SM CLR 14/09 A3024 RMK AO2 SLP240 T01390094 10156 20111 53003
VFR 13.3°C / 9.4°C 340º 3kt >10km - Clear 1023 - KHYA 240456Z AUTO 34003KT 10SM CLR 13/09 A3023 RMK AO2 SLP237 T01330094 402000111
VFR 11.7°C / 8.3°C variable 0kt >10km - Clear 1023 - KHYA 240356Z AUTO 00000KT 10SM CLR 12/08 A3023 RMK AO2 SLP238 T01170083
VFR 11.7°C / 7.2°C variable 0kt >10km - Clear 1023 - KHYA 240256Z AUTO 00000KT 10SM CLR 12/07 A3023 RMK AO2 SLP237 T01170072 51016
VFR 11.7°C / 6.7°C variable 0kt >10km - Clear 1023 - KHYA 240156Z 00000KT 10SM CLR 12/07 A3022 RMK AO2 SLP234 T01170067
VFR 13.3°C / 6.7°C variable 0kt >10km - Clear 1022 - KHYA 240056Z 00000KT 10SM CLR 13/07 A3020 RMK AO2 SLP227 T01330067
VFR 15.6°C / 5°C 360º 3kt >10km - Clear 1022 - KHYA 232356Z 36003KT 10SM CLR 16/05 A3018 RMK AO2 SLP221 T01560050 10200 20156 53013
VFR 17.2°C / 5°C 30º 6kt >10km - Clear 1021 - KHYA 232256Z 03006KT 10SM CLR 17/05 A3016 RMK AO2 SLP214 T01720050
VFR 18.3°C / 5.6°C 20º 8kt >10km - Clear 1020 - KHYA 232156Z 02008KT 10SM CLR 18/06 A3015 RMK AO2 SLP209 T01830056
VFR 18.9°C / 6.1°C 20º 8kt >10km - Clear 1020 - KHYA 232056Z 02008KT 10SM CLR 19/06 A3014 RMK AO2 SLP208 T01890061 55000
VFR 19.4°C / 6.7°C 10º 11kt >10km - Clear 1020 - KHYA 231956Z 01011KT 10SM CLR 19/07 A3014 RMK AO2 SLP206 T01940067
VFR 18.9°C / 7.8°C 20º 12kt Gust 20kt >10km - Overcast 4400ft 1020 - KHYA 231856Z 02012G20KT 10SM OVC044 19/08 A3014 RMK AO2 SLP208 T01890078
VFR 17.8°C / 8.3°C 10º 12kt Gust 23kt >10km - Overcast 4200ft 1020 - KHYA 231756Z 01012G23KT 10SM OVC042 18/08 A3014 RMK AO2 SLP208 T01780083 10183 20156 50001
VFR 17.2°C / 9.4°C 360º 13kt Gust 22kt >10km - Broken Clouds 4200ft 1021 - KHYA 231656Z 36013G22KT 10SM BKN042 17/09 A3015 RMK AO2 SLP210 T01720094
VFR 17.2°C / 10°C 360º 15kt Gust 22kt >10km - Broken Clouds 8000ft 1021 - KHYA 231556Z 36015G22KT 10SM BKN080 17/10 A3015 RMK AO2 SLP211 T01720100
VFR 17.8°C / 10.6°C 360º 14kt Gust 21kt >10km - Few Clouds 4500ft
Broken Clouds 7000ft
Overcast 8000ft
1020 - KHYA 231456Z 36014G21KT 10SM FEW045 BKN070 OVC080 18/11 A3014 RMK AO2 SLP208 T01780106 53021
VFR 16.7°C / 10°C 350º 14kt Gust 19kt >10km - Broken Clouds 3200ft
Overcast 6000ft
1019 - KHYA 231356Z 35014G19KT 10SM BKN032 OVC060 17/10 A3012 RMK AO2 SLP199 T01670100
MVFR 15.6°C / 11.1°C 340º 11kt Gust 17kt >10km - Overcast 2500ft 1019 - KHYA 231256Z 34011G17KT 10SM OVC025 16/11 A3010 RMK AO2 SLP194 T01560111
MVFR 16.1°C / 11.1°C 350º 15kt Gust 22kt >10km - Overcast 2200ft 1018 - KHYA 231156Z 35015G22KT 10SM OVC022 16/11 A3008 RMK AO2 SLP187 T01610111 10183 20156 53027
MVFR 16.1°C / 11.7°C 360º 14kt Gust 23kt >10km - Overcast 2400ft 1017 - KHYA 231056Z 36014G23KT 10SM OVC024 16/12 A3004 RMK AO2 SLP174 T01610117
MVFR 16.7°C / 12.2°C 350º 13kt Gust 22kt >10km - Broken Clouds 2300ft
Broken Clouds 3400ft
- KHYA 231029Z 35013G22KT 10SM BKN023 BKN034 17/12 A3003 RMK AO2 T01670122

VFR

13.3°C / 7.2°C

[Mehr]
Wind 30º 10kt Gust 17kt
Sichtweite >10km
Wetter -
Wolken Few Clouds 9000ft
Scattered Clouds 11000ft
Druck 1024
Änderung -
Roh KHYA 240856Z AUTO 03010G17KT 10SM FEW090 SCT110 13/07 A3025 RMK AO2 SLP246 T01330072 53006

VFR

13.9°C / 7.8°C

[Mehr]
Wind 10º 12kt Gust 16kt
Sichtweite >10km
Wetter -
Wolken Few Clouds 9500ft
Druck 1024
Änderung -
Roh KHYA 240756Z AUTO 01012G16KT 10SM FEW095 14/08 A3025 RMK AO2 SLP243 T01390078

VFR

13.3°C / 8.9°C

[Mehr]
Wind 350º 4kt
Sichtweite >10km
Wetter -
Wolken Few Clouds 8000ft
Druck 1023
Änderung -
Roh KHYA 240656Z AUTO 35004KT 10SM FEW080 13/09 A3023 RMK AO2 SLP239 T01330089

VFR

13.9°C / 9.4°C

[Mehr]
Wind 340º 4kt
Sichtweite >10km
Wetter -
Wolken Clear
Druck 1024
Änderung -
Roh KHYA 240556Z AUTO 34004KT 10SM CLR 14/09 A3024 RMK AO2 SLP240 T01390094 10156 20111 53003

VFR

13.3°C / 9.4°C

[Mehr]
Wind 340º 3kt
Sichtweite >10km
Wetter -
Wolken Clear
Druck 1023
Änderung -
Roh KHYA 240456Z AUTO 34003KT 10SM CLR 13/09 A3023 RMK AO2 SLP237 T01330094 402000111

VFR

11.7°C / 8.3°C

[Mehr]
Wind variable 0kt
Sichtweite >10km
Wetter -
Wolken Clear
Druck 1023
Änderung -
Roh KHYA 240356Z AUTO 00000KT 10SM CLR 12/08 A3023 RMK AO2 SLP238 T01170083

VFR

11.7°C / 7.2°C

[Mehr]
Wind variable 0kt
Sichtweite >10km
Wetter -
Wolken Clear
Druck 1023
Änderung -
Roh KHYA 240256Z AUTO 00000KT 10SM CLR 12/07 A3023 RMK AO2 SLP237 T01170072 51016

VFR

11.7°C / 6.7°C

[Mehr]
Wind variable 0kt
Sichtweite >10km
Wetter -
Wolken Clear
Druck 1023
Änderung -
Roh KHYA 240156Z 00000KT 10SM CLR 12/07 A3022 RMK AO2 SLP234 T01170067

VFR

13.3°C / 6.7°C

[Mehr]
Wind variable 0kt
Sichtweite >10km
Wetter -
Wolken Clear
Druck 1022
Änderung -
Roh KHYA 240056Z 00000KT 10SM CLR 13/07 A3020 RMK AO2 SLP227 T01330067

VFR

15.6°C / 5°C

[Mehr]
Wind 360º 3kt
Sichtweite >10km
Wetter -
Wolken Clear
Druck 1022
Änderung -
Roh KHYA 232356Z 36003KT 10SM CLR 16/05 A3018 RMK AO2 SLP221 T01560050 10200 20156 53013

VFR

17.2°C / 5°C

[Mehr]
Wind 30º 6kt
Sichtweite >10km
Wetter -
Wolken Clear
Druck 1021
Änderung -
Roh KHYA 232256Z 03006KT 10SM CLR 17/05 A3016 RMK AO2 SLP214 T01720050

VFR

18.3°C / 5.6°C

[Mehr]
Wind 20º 8kt
Sichtweite >10km
Wetter -
Wolken Clear
Druck 1020
Änderung -
Roh KHYA 232156Z 02008KT 10SM CLR 18/06 A3015 RMK AO2 SLP209 T01830056

VFR

18.9°C / 6.1°C

[Mehr]
Wind 20º 8kt
Sichtweite >10km
Wetter -
Wolken Clear
Druck 1020
Änderung -
Roh KHYA 232056Z 02008KT 10SM CLR 19/06 A3014 RMK AO2 SLP208 T01890061 55000

VFR

19.4°C / 6.7°C

[Mehr]
Wind 10º 11kt
Sichtweite >10km
Wetter -
Wolken Clear
Druck 1020
Änderung -
Roh KHYA 231956Z 01011KT 10SM CLR 19/07 A3014 RMK AO2 SLP206 T01940067

VFR

18.9°C / 7.8°C

[Mehr]
Wind 20º 12kt Gust 20kt
Sichtweite >10km
Wetter -
Wolken Overcast 4400ft
Druck 1020
Änderung -
Roh KHYA 231856Z 02012G20KT 10SM OVC044 19/08 A3014 RMK AO2 SLP208 T01890078

VFR

17.8°C / 8.3°C

[Mehr]
Wind 10º 12kt Gust 23kt
Sichtweite >10km
Wetter -
Wolken Overcast 4200ft
Druck 1020
Änderung -
Roh KHYA 231756Z 01012G23KT 10SM OVC042 18/08 A3014 RMK AO2 SLP208 T01780083 10183 20156 50001

VFR

17.2°C / 9.4°C

[Mehr]
Wind 360º 13kt Gust 22kt
Sichtweite >10km
Wetter -
Wolken Broken Clouds 4200ft
Druck 1021
Änderung -
Roh KHYA 231656Z 36013G22KT 10SM BKN042 17/09 A3015 RMK AO2 SLP210 T01720094

VFR

17.2°C / 10°C

[Mehr]
Wind 360º 15kt Gust 22kt
Sichtweite >10km
Wetter -
Wolken Broken Clouds 8000ft
Druck 1021
Änderung -
Roh KHYA 231556Z 36015G22KT 10SM BKN080 17/10 A3015 RMK AO2 SLP211 T01720100

VFR

17.8°C / 10.6°C

[Mehr]
Wind 360º 14kt Gust 21kt
Sichtweite >10km
Wetter -
Wolken Few Clouds 4500ft
Broken Clouds 7000ft
Overcast 8000ft
Druck 1020
Änderung -
Roh KHYA 231456Z 36014G21KT 10SM FEW045 BKN070 OVC080 18/11 A3014 RMK AO2 SLP208 T01780106 53021

VFR

16.7°C / 10°C

[Mehr]
Wind 350º 14kt Gust 19kt
Sichtweite >10km
Wetter -
Wolken Broken Clouds 3200ft
Overcast 6000ft
Druck 1019
Änderung -
Roh KHYA 231356Z 35014G19KT 10SM BKN032 OVC060 17/10 A3012 RMK AO2 SLP199 T01670100

MVFR

15.6°C / 11.1°C

[Mehr]
Wind 340º 11kt Gust 17kt
Sichtweite >10km
Wetter -
Wolken Overcast 2500ft
Druck 1019
Änderung -
Roh KHYA 231256Z 34011G17KT 10SM OVC025 16/11 A3010 RMK AO2 SLP194 T01560111

MVFR

16.1°C / 11.1°C

[Mehr]
Wind 350º 15kt Gust 22kt
Sichtweite >10km
Wetter -
Wolken Overcast 2200ft
Druck 1018
Änderung -
Roh KHYA 231156Z 35015G22KT 10SM OVC022 16/11 A3008 RMK AO2 SLP187 T01610111 10183 20156 53027

MVFR

16.1°C / 11.7°C

[Mehr]
Wind 360º 14kt Gust 23kt
Sichtweite >10km
Wetter -
Wolken Overcast 2400ft
Druck 1017
Änderung -
Roh KHYA 231056Z 36014G23KT 10SM OVC024 16/12 A3004 RMK AO2 SLP174 T01610117

MVFR

16.7°C / 12.2°C

[Mehr]
Wind 350º 13kt Gust 22kt
Sichtweite >10km
Wetter -
Wolken Broken Clouds 2300ft
Broken Clouds 3400ft
Druck
Änderung -
Roh KHYA 231029Z 35013G22KT 10SM BKN023 BKN034 17/12 A3003 RMK AO2 T01670122

TAF für Barnstable (KHYA)

From till


From till Wind 30º 10kt. Gust 18kt. Visibility 10km or more. Light Showers Rain . Few Clouds 9000ft. Scattered Clouds 11000ft. Overcast 20000ft.
From till Wind 50º 11kt. Gust 19kt. Visibility 10km or more. Overcast 12000ft.
From till Wind 50º 10kt. Visibility 10km or more. Broken Clouds 15000ft.
From till Wind 80º 7kt. Visibility 10km or more. Few Clouds 20000ft.

Roh: KHYA 240903Z 2409/2506 03010G18KT P6SM -SHRA FEW090 SCT110 OVC200 FM241200 05011G19KT P6SM OVC120 FM241600 05010KT P6SM BKN150 FM250000 08007KT P6SM FEW200

Radar- und Niederschlags-Nowcast für Barnstable

Nieselregen
Leicht
Moderat
Stark
Sehr schwer
Hagel

Die Ortsmarkierung zeigt auf Barnstable. Diese Animation zeigt das Niederschlagsradar der letzten Stunde, sowie eine 1h Vorhersage. Nieselregen und leichter Schneefall können für das Radar unsichtbar sein. Die Niederschlagsintensität ist farbcodiert von Hellblau bis Orange.

Aktuelle Satellitenbilder für Barnstable, Vereinigte Staaten

Die Standortmarkierung ist platziert auf Barnstable. [Mehr]

Das Echtzeit-Satellitenbild kombiniert sichtbares Licht während des Tages mit Infrarotstrahlung während der Nacht. Nachts ist das Bild nicht dunkel, da Infrarotstrahlung Temperaturunterschiede erkennen kann. Leider sind niedrige Wolken und Nebel nur schwer von den Bodentemperaturen zu unterscheiden und können daher nachts fast unsichtbar sein. Meteosat-Satellitenbilder für Europa werden alle 5 Minuten in Echtzeit aktualisiert. Die Bilder GOES-16 / GOES-17 (Nord- und Südamerika) und Himawari (Asien) werden alle 10 Minuten aktualisiert.

Zum Anfang